Golden Lake, Canada
Current Conditions -  °F | °C
As of 4:13 AM on Sunday 26 Oct 2014 (Local Time) from CYWA Reporting Station
Overcast Overcast  
Wind Chill: 39°   Ceiling: 3300
Heat Index: 43°   Visibility: 9mi
Dew Point: 36°   Wind: 7mph
Humidity: 76%   Direction: 300°WNW
Pressure: 29.48"   Gusts: NA
Location:  45.58°N, 77.25°W
Report Text: CYWA 260813Z AUTO 30006KT 9SM OVC033 06/02 A2948
Loading
Personal Weather Stations






























Interactive Weather Map
Tropical Storm Tracking
New forecast layout! Learn more

10-Day Weather Forecast

Advertisements
Track Severe Weather on mobile